Time;durP1;ratioP1;P1;durP2;ratioP2;P2;SDS_P1;SDS_P2;PMS_P1;PMS_P2;Temp;Humidity;BMP_temperature;BMP_pressure;BME280_temperature;BME280_humidity;BME280_pressure;Samples;Min_cycle;Max_cycle;Signal;HPM_P1;HPM_P2
2022/05/25 00:00:23;;;;;;;2.55;0.70;;;11.30;99.90;;;;;;5055347;28;20127;-78
2022/05/25 00:02:49;;;;;;;0.00;0.00;;;11.20;99.90;;;;;;5055386;28;20552;-77
2022/05/25 00:05:16;;;;;;;0.00;0.00;;;11.20;99.90;;;;;;5055362;28;20134;-78
2022/05/25 00:07:43;;;;;;;0.00;0.00;;;11.20;99.90;;;;;;5038437;28;20182;-77
2022/05/25 00:10:09;;;;;;;0.00;0.00;;;11.20;99.90;;;;;;5038577;28;20399;-78
2022/05/25 00:12:34;;;;;;;0.00;0.00;;;11.20;99.90;;;;;;5054967;28;20044;-78
2022/05/25 00:15:00;;;;;;;0.00;0.00;;;11.20;99.90;;;;;;5038093;28;20052;-77
2022/05/25 00:17:26;;;;;;;0.00;0.00;;;11.10;99.90;;;;;;5038908;28;20053;-78
2022/05/25 00:20:00;;;;;;;0.10;0.00;;;11.10;99.90;;;;;;5055010;28;20427;-78
2022/05/25 00:22:48;;;;;;;0.00;0.00;;;11.10;99.90;;;;;;5038729;28;20049;-78
2022/05/25 00:25:33;;;;;;;0.00;0.00;;;11.00;99.90;;;;;;5037519;28;20404;-78
2022/05/25 00:27:59;;;;;;;0.00;0.00;;;11.00;99.90;;;;;;5038468;28;20554;-78
2022/05/25 00:30:26;;;;;;;0.00;0.00;;;11.00;99.90;;;;;;5054870;28;20037;-78
2022/05/25 00:32:53;;;;;;;0.00;0.00;;;11.00;99.90;;;;;;5054769;28;20052;-78
2022/05/25 00:35:21;;;;;;;0.00;0.00;;;11.00;99.90;;;;;;5037827;28;20033;-78
2022/05/25 00:37:47;;;;;;;0.00;0.00;;;11.00;99.90;;;;;;5054639;28;20441;-78
2022/05/25 00:40:26;;;;;;;0.00;0.00;;;10.90;99.90;;;;;;5038026;28;20053;-78
2022/05/25 00:42:52;;;;;;;0.00;0.00;;;10.90;99.90;;;;;;5054932;28;20068;-78
2022/05/25 00:45:18;;;;;;;0.00;0.00;;;10.90;99.90;;;;;;5037599;28;20434;-77
2022/05/25 00:47:47;;;;;;;0.00;0.00;;;10.90;99.90;;;;;;5054357;28;20037;-78
2022/05/25 00:50:15;;;;;;;0.00;0.00;;;10.90;99.90;;;;;;5054318;28;20134;-78
2022/05/25 00:52:42;;;;;;;0.00;0.00;;;10.80;99.90;;;;;;5054409;28;20386;-78
2022/05/25 00:55:11;;;;;;;0.00;0.00;;;10.80;99.90;;;;;;5053751;28;20056;-78
2022/05/25 00:57:41;;;;;;;0.00;0.00;;;10.80;99.90;;;;;;5054244;28;20052;-78
2022/05/25 01:00:17;;;;;;;0.00;0.00;;;10.70;99.90;;;;;;5054426;28;20045;-78
2022/05/25 01:02:50;;;;;;;0.00;0.00;;;10.70;99.90;;;;;;5037466;28;20060;-78
2022/05/25 01:05:26;;;;;;;0.00;0.00;;;10.70;99.90;;;;;;5054801;28;20091;-78
2022/05/25 01:08:10;;;;;;;0.00;0.00;;;10.60;99.90;;;;;;5054506;28;20397;-78
2022/05/25 01:10:42;;;;;;;0.00;0.00;;;10.70;99.90;;;;;;5054038;28;20045;-78
2022/05/25 01:13:10;;;;;;;0.00;0.00;;;10.70;99.90;;;;;;5053942;28;20575;-78
2022/05/25 01:16:13;;;;;;;0.00;0.00;;;10.60;99.90;;;;;;5054296;28;20037;-78
2022/05/25 01:19:08;;;;;;;0.00;0.00;;;10.60;99.90;;;;;;5036844;28;20152;-78
2022/05/25 01:22:04;;;;;;;0.00;0.00;;;10.60;99.90;;;;;;4996667;28;20149;-78
2022/05/25 01:24:56;;;;;;;0.00;0.00;;;10.60;99.90;;;;;;4980784;28;20049;-78
2022/05/25 01:27:44;;;;;;;0.00;0.00;;;10.60;99.90;;;;;;4980673;28;20379;-78
2022/05/25 01:30:31;;;;;;;0.03;0.03;;;10.60;99.90;;;;;;4997188;28;20677;-78
2022/05/25 01:33:15;;;;;;;0.00;0.00;;;10.60;99.90;;;;;;4996401;28;20486;-78
2022/05/25 01:36:01;;;;;;;0.70;0.00;;;10.60;99.90;;;;;;4980197;28;20046;-78
2022/05/25 01:38:51;;;;;;;1.00;0.20;;;10.60;99.90;;;;;;4997012;28;20120;-77
2022/05/25 01:41:31;;;;;;;0.03;0.03;;;10.60;99.90;;;;;;4996752;28;20057;-77
2022/05/25 01:44:04;;;;;;;0.05;0.03;;;10.60;99.90;;;;;;4996527;28;20437;-78
2022/05/25 01:46:53;;;;;;;0.00;0.00;;;10.60;99.90;;;;;;4996226;28;20058;-78
2022/05/25 01:49:23;;;;;;;0.00;0.00;;;10.60;99.90;;;;;;4996802;28;20100;-78
2022/05/25 01:52:04;;;;;;;0.45;0.00;;;10.60;99.90;;;;;;4980045;28;20057;-78
2022/05/25 01:54:41;;;;;;;0.00;0.00;;;10.60;99.90;;;;;;4979791;28;20076;-77
2022/05/25 01:57:11;;;;;;;7.88;1.00;;;10.60;99.90;;;;;;4980372;28;20085;-77
2022/05/25 01:59:37;;;;;;;0.10;0.10;;;10.60;99.90;;;;;;5029875;28;20067;-78
2022/05/25 02:04:52;;;;;;;0.00;0.00;;;10.60;99.90;;;;;;5053224;28;20106;-77
2022/05/25 02:07:52;;;;;;;0.08;0.08;;;10.60;99.90;;;;;;5053016;28;20102;-77
2022/05/25 02:10:42;;;;;;;0.00;0.00;;;10.50;99.90;;;;;;5036230;28;20163;-78
2022/05/25 02:13:33;;;;;;;0.00;0.00;;;10.50;99.90;;;;;;5036376;28;20095;-77
2022/05/25 02:16:02;;;;;;;0.85;0.10;;;10.50;99.90;;;;;;5036975;28;20052;-77
2022/05/25 02:18:49;;;;;;;0.00;0.00;;;10.40;99.90;;;;;;5036521;28;20389;-77
2022/05/25 02:21:32;;;;;;;0.00;0.00;;;10.50;99.90;;;;;;5036284;28;20500;-77
2022/05/25 02:24:16;;;;;;;0.00;0.00;;;10.50;99.90;;;;;;5052768;28;20503;-78
2022/05/25 02:26:54;;;;;;;0.00;0.00;;;10.50;99.90;;;;;;5052998;28;20392;-77
2022/05/25 02:29:26;;;;;;;0.05;0.05;;;10.40;99.90;;;;;;5053119;28;20098;-78
2022/05/25 02:32:12;;;;;;;0.00;0.00;;;10.40;99.90;;;;;;5035486;28;20057;-77
2022/05/25 02:34:42;;;;;;;0.20;0.20;;;10.40;99.90;;;;;;5035562;28;20041;-77
2022/05/25 02:37:09;;;;;;;0.00;0.00;;;10.40;99.90;;;;;;5036227;28;20041;-78
2022/05/25 02:39:35;;;;;;;0.00;0.00;;;10.30;99.90;;;;;;5051945;28;20045;-78
2022/05/25 02:42:00;;;;;;;0.10;0.00;;;10.50;99.90;;;;;;5051073;28;20052;-77
2022/05/25 02:44:26;;;;;;;0.00;0.00;;;10.40;99.90;;;;;;5033689;28;20057;-77
2022/05/25 02:46:52;;;;;;;0.00;0.00;;;10.40;99.90;;;;;;5035901;28;20053;-77
2022/05/25 02:49:19;;;;;;;0.10;0.08;;;10.30;99.90;;;;;;5035823;28;20496;-77
2022/05/25 02:51:45;;;;;;;0.00;0.00;;;10.30;99.90;;;;;;5052463;28;20041;-77
2022/05/25 02:54:11;;;;;;;0.00;0.00;;;10.30;99.90;;;;;;5051943;28;20049;-77
2022/05/25 02:56:40;;;;;;;0.08;0.00;;;10.30;99.90;;;;;;5052490;28;20092;-77
2022/05/25 02:59:06;;;;;;;0.20;0.20;;;10.30;99.90;;;;;;5035821;28;20132;-78
2022/05/25 03:01:31;;;;;;;0.00;0.00;;;10.30;99.90;;;;;;5052331;28;20568;-78
2022/05/25 03:03:57;;;;;;;0.17;0.10;;;10.30;99.90;;;;;;5053096;28;20056;-77
2022/05/25 03:06:23;;;;;;;0.10;0.00;;;10.30;99.90;;;;;;5052452;28;20543;-78
2022/05/25 03:08:48;;;;;;;0.00;0.00;;;10.40;99.90;;;;;;5052406;28;20053;-77
2022/05/25 03:11:14;;;;;;;0.10;0.00;;;10.40;99.90;;;;;;5035718;28;20111;-77
2022/05/25 03:13:45;;;;;;;0.00;0.00;;;10.40;99.90;;;;;;5052343;28;20515;-77
2022/05/25 03:16:13;;;;;;;0.00;0.00;;;10.30;99.90;;;;;;5052559;28;20052;-78
2022/05/25 03:18:38;;;;;;;0.43;0.32;;;10.40;99.90;;;;;;5035460;28;20055;-78
2022/05/25 03:21:05;;;;;;;0.03;0.03;;;10.30;99.90;;;;;;5035936;28;20057;-77
2022/05/25 03:23:30;;;;;;;0.40;0.20;;;10.30;99.90;;;;;;5052181;28;20136;-77
2022/05/25 03:25:59;;;;;;;0.43;0.20;;;10.30;99.90;;;;;;5052147;28;20114;-77
2022/05/25 03:28:24;;;;;;;0.10;0.10;;;10.30;99.90;;;;;;5035631;28;20049;-77
2022/05/25 03:30:50;;;;;;;0.15;0.15;;;10.30;99.90;;;;;;5035906;28;20049;-77
2022/05/25 03:33:16;;;;;;;0.00;0.00;;;10.30;99.90;;;;;;5035533;28;20060;-77
2022/05/25 03:35:43;;;;;;;0.20;0.20;;;10.40;99.90;;;;;;5051857;28;20041;-77
2022/05/25 03:38:08;;;;;;;0.00;0.00;;;10.30;99.90;;;;;;5035629;28;20080;-78
2022/05/25 03:40:35;;;;;;;0.10;0.03;;;10.30;99.90;;;;;;5052181;28;20083;-78
2022/05/25 03:43:00;;;;;;;0.10;0.10;;;10.30;99.90;;;;;;5037327;28;20053;-78
2022/05/25 03:45:26;;;;;;;0.00;0.00;;;10.30;99.90;;;;;;5039638;28;20500;-78
2022/05/25 03:47:53;;;;;;;0.52;0.28;;;10.30;99.90;;;;;;5055697;28;20049;-78
2022/05/25 03:50:19;;;;;;;0.28;0.00;;;10.30;99.90;;;;;;5039087;28;20419;-78
2022/05/25 03:52:45;;;;;;;1.17;0.00;;;10.30;99.90;;;;;;5055708;28;20075;-78
2022/05/25 03:55:11;;;;;;;0.15;0.08;;;10.30;99.90;;;;;;5038136;28;20501;-78
2022/05/25 03:57:37;;;;;;;0.10;0.10;;;10.30;99.90;;;;;;5038135;28;20045;-78
2022/05/25 04:00:06;;;;;;;0.35;0.22;;;10.20;99.90;;;;;;5038964;28;20067;-78
2022/05/25 04:02:32;;;;;;;0.10;0.10;;;10.30;99.90;;;;;;5058977;28;20040;-79
2022/05/25 04:05:07;;;;;;;0.10;0.00;;;10.30;99.90;;;;;;5073286;28;20062;-78
2022/05/25 04:07:44;;;;;;;0.28;0.20;;;10.20;99.90;;;;;;5054125;28;20084;-78
2022/05/25 04:10:20;;;;;;;0.85;0.10;;;10.30;99.90;;;;;;5036586;28;20149;-78
2022/05/25 04:12:46;;;;;;;0.00;0.00;;;10.30;99.90;;;;;;5055244;28;20083;-78
2022/05/25 04:15:16;;;;;;;0.05;0.00;;;10.30;99.90;;;;;;5038296;28;20080;-78
2022/05/25 04:17:42;;;;;;;0.05;0.03;;;10.30;99.90;;;;;;5038400;28;20140;-78
2022/05/25 04:20:09;;;;;;;0.00;0.00;;;10.30;99.90;;;;;;5038321;28;20202;-78
2022/05/25 04:22:38;;;;;;;0.00;0.00;;;10.30;99.90;;;;;;5054873;28;20135;-78
2022/05/25 04:25:07;;;;;;;0.32;0.20;;;10.30;99.90;;;;;;5055115;28;20045;-78
2022/05/25 04:27:34;;;;;;;0.10;0.00;;;10.30;99.90;;;;;;5055403;28;20110;-78
2022/05/25 04:30:00;;;;;;;0.20;0.20;;;10.30;99.90;;;;;;5038402;28;20049;-78
2022/05/25 04:32:26;;;;;;;0.93;0.20;;;10.30;99.90;;;;;;5054840;28;20099;-78
2022/05/25 04:34:51;;;;;;;0.00;0.00;;;10.30;99.90;;;;;;5054555;28;20169;-79
2022/05/25 04:40:01;;;;;;;0.00;0.00;;;10.30;99.90;;;;;;5054895;28;20135;-78
2022/05/25 04:42:29;;;;;;;0.00;0.00;;;10.40;99.90;;;;;;5054515;28;20469;-78
2022/05/25 04:45:00;;;;;;;0.45;0.15;;;10.40;99.90;;;;;;5054287;28;20485;-79
2022/05/25 04:47:31;;;;;;;0.00;0.00;;;10.50;99.90;;;;;;5037859;28;20102;-79
2022/05/25 04:49:58;;;;;;;0.20;0.20;;;10.50;99.90;;;;;;5037569;28;20053;-78
2022/05/25 04:52:24;;;;;;;0.68;0.10;;;10.50;99.90;;;;;;5053923;28;20057;-78
2022/05/25 04:54:50;;;;;;;0.00;0.00;;;10.60;99.90;;;;;;5052489;28;20053;-79
2022/05/25 04:57:23;;;;;;;0.52;0.20;;;10.60;99.90;;;;;;5054318;28;20041;-78
2022/05/25 04:59:50;;;;;;;0.00;0.00;;;10.70;99.90;;;;;;5053724;28;20408;-78
2022/05/25 05:02:16;;;;;;;1.55;0.80;;;10.70;99.90;;;;;;5053387;28;20057;-79
2022/05/25 05:04:43;;;;;;;0.55;0.55;;;10.70;99.90;;;;;;5054212;28;20139;-78
2022/05/25 05:07:10;;;;;;;0.00;0.00;;;10.70;99.90;;;;;;5037061;28;20113;-79
2022/05/25 05:09:37;;;;;;;0.35;0.17;;;10.80;99.90;;;;;;5054051;28;20037;-78
2022/05/25 05:12:04;;;;;;;0.35;0.35;;;10.90;99.90;;;;;;5054035;28;20056;-78
2022/05/25 05:14:30;;;;;;;0.17;0.00;;;10.90;99.90;;;;;;5037636;28;20056;-78
2022/05/25 05:16:57;;;;;;;0.45;0.30;;;11.10;99.90;;;;;;5053277;28;20162;-78
2022/05/25 05:19:25;;;;;;;0.20;0.10;;;11.30;99.90;;;;;;5036988;28;20128;-78
2022/05/25 05:21:54;;;;;;;0.10;0.10;;;11.40;99.90;;;;;;5053869;28;20057;-78
2022/05/25 05:24:20;;;;;;;0.00;0.00;;;11.40;99.90;;;;;;5053701;28;20104;-78
2022/05/25 05:26:46;;;;;;;0.10;0.10;;;11.40;99.90;;;;;;5053822;28;20049;-79
2022/05/25 05:29:12;;;;;;;0.38;0.38;;;11.50;99.90;;;;;;5036925;28;20506;-78
2022/05/25 05:31:38;;;;;;;0.05;0.00;;;11.70;99.90;;;;;;5053444;28;20049;-78
2022/05/25 05:34:04;;;;;;;0.30;0.30;;;12.20;99.90;;;;;;5053722;28;20037;-78
2022/05/25 05:36:36;;;;;;;2.55;0.10;;;12.70;99.90;;;;;;5037093;28;20057;-79
2022/05/25 05:39:08;;;;;;;0.00;0.00;;;12.90;99.90;;;;;;5037493;28;20071;-78
2022/05/25 05:41:39;;;;;;;0.03;0.03;;;12.90;99.90;;;;;;5053623;28;20041;-78
2022/05/25 05:44:06;;;;;;;0.20;0.20;;;12.80;99.90;;;;;;5053105;28;20057;-78
2022/05/25 05:46:34;;;;;;;1.38;0.30;;;12.70;99.90;;;;;;5036919;28;20049;-78
2022/05/25 05:49:00;;;;;;;0.30;0.30;;;12.60;99.90;;;;;;5037079;28;20462;-78
2022/05/25 05:51:26;;;;;;;3.72;0.73;;;12.60;99.90;;;;;;5053365;28;20045;-77
2022/05/25 05:53:52;;;;;;;0.17;0.17;;;12.50;99.90;;;;;;5053212;28;20047;-78
2022/05/25 05:56:19;;;;;;;0.00;0.00;;;12.50;99.90;;;;;;5053442;28;20067;-78
2022/05/25 05:58:45;;;;;;;0.10;0.10;;;12.40;99.90;;;;;;5053259;28;20061;-77
2022/05/25 06:01:10;;;;;;;0.10;0.10;;;12.40;99.90;;;;;;5062805;28;20037;-78
2022/05/25 06:03:36;;;;;;;0.10;0.10;;;12.40;99.90;;;;;;5071874;28;20084;-78
2022/05/25 06:06:02;;;;;;;0.00;0.00;;;12.50;99.90;;;;;;5053845;28;20048;-79
2022/05/25 06:08:29;;;;;;;0.00;0.00;;;12.50;99.90;;;;;;5070577;28;20061;-79
2022/05/25 06:10:57;;;;;;;0.28;0.28;;;12.60;99.90;;;;;;5069642;28;20497;-79
2022/05/25 06:13:22;;;;;;;0.20;0.20;;;12.60;99.90;;;;;;5054365;28;20048;-78
2022/05/25 06:21:20;;;;;;;0.90;0.10;;;12.80;99.90;;;;;;5072797;28;20051;-78
2022/05/25 06:23:46;;;;;;;0.80;0.55;;;12.80;99.90;;;;;;5073103;28;20044;-78
2022/05/25 06:26:14;;;;;;;1.20;0.35;;;12.90;99.90;;;;;;5073441;28;20041;-78
2022/05/25 06:28:40;;;;;;;0.00;0.00;;;12.90;99.90;;;;;;5056047;28;20071;-78
2022/05/25 06:31:06;;;;;;;0.43;0.10;;;12.90;99.90;;;;;;5072875;28;20048;-78
2022/05/25 06:33:32;;;;;;;0.00;0.00;;;13.00;99.90;;;;;;5072821;28;20044;-78
2022/05/25 06:36:16;;;;;;;0.00;0.00;;;13.10;99.90;;;;;;5072392;28;20113;-79
2022/05/25 06:38:41;;;;;;;0.85;0.20;;;13.20;99.90;;;;;;5072725;28;20488;-78
2022/05/25 06:41:07;;;;;;;0.00;0.00;;;13.20;99.90;;;;;;5072696;28;20044;-78
2022/05/25 06:43:34;;;;;;;0.32;0.32;;;13.30;99.90;;;;;;5072673;28;20040;-79
2022/05/25 06:45:59;;;;;;;0.40;0.40;;;13.40;99.90;;;;;;5072515;28;20044;-79
2022/05/25 06:48:25;;;;;;;0.00;0.00;;;13.40;99.90;;;;;;5055772;28;20056;-77
2022/05/25 06:50:51;;;;;;;0.80;0.00;;;13.60;99.90;;;;;;5072557;28;20045;-79
2022/05/25 06:53:16;;;;;;;1.40;0.40;;;13.70;99.90;;;;;;5071695;28;20063;-78
2022/05/25 06:55:42;;;;;;;0.17;0.10;;;13.70;99.90;;;;;;5055638;28;20473;-78
2022/05/25 06:58:08;;;;;;;0.00;0.00;;;13.90;99.90;;;;;;5072427;28;20131;-78
2022/05/25 07:00:33;;;;;;;0.00;0.00;;;13.90;99.90;;;;;;5072699;28;20483;-79
2022/05/25 07:03:03;;;;;;;0.55;0.20;;;13.90;99.90;;;;;;5072392;28;20052;-77
2022/05/25 07:05:29;;;;;;;0.00;0.00;;;14.00;99.90;;;;;;5072686;28;20139;-78
2022/05/25 07:07:54;;;;;;;0.00;0.00;;;14.10;99.90;;;;;;5056299;28;20092;-78
2022/05/25 07:10:20;;;;;;;0.15;0.10;;;14.30;99.90;;;;;;5055863;28;20480;-78
2022/05/25 07:12:46;;;;;;;0.00;0.00;;;14.40;99.90;;;;;;5069419;28;20055;-78
2022/05/25 07:15:12;;;;;;;0.00;0.00;;;14.60;99.90;;;;;;5035215;28;20041;-78
2022/05/25 07:17:38;;;;;;;0.45;0.32;;;14.70;99.90;;;;;;5053641;28;20037;-78
2022/05/25 07:20:06;;;;;;;0.00;0.00;;;14.80;99.90;;;;;;5056339;28;20092;-79
2022/05/25 07:22:33;;;;;;;0.50;0.30;;;14.90;99.90;;;;;;5039543;28;20135;-78
2022/05/25 07:24:58;;;;;;;0.10;0.10;;;15.00;99.90;;;;;;5039029;28;20048;-79
2022/05/25 07:27:24;;;;;;;0.00;0.00;;;15.10;99.90;;;;;;5056006;28;20066;-79
2022/05/25 07:29:50;;;;;;;0.00;0.00;;;15.20;99.90;;;;;;5039517;28;20102;-78
2022/05/25 07:32:15;;;;;;;0.30;0.25;;;15.40;99.90;;;;;;5055849;28;20110;-79
2022/05/25 07:34:50;;;;;;;0.00;0.00;;;15.50;99.90;;;;;;5052863;28;20052;-78
2022/05/25 07:37:20;;;;;;;0.00;0.00;;;15.60;99.90;;;;;;5076051;28;20170;-80
2022/05/25 07:39:55;;;;;;;0.75;0.35;;;15.70;99.90;;;;;;5075889;28;20377;-79
2022/05/25 07:42:21;;;;;;;0.52;0.45;;;15.70;99.90;;;;;;5075859;28;20040;-79
2022/05/25 07:45:05;;;;;;;0.10;0.00;;;15.80;99.90;;;;;;5075626;28;20049;-78
2022/05/25 07:47:33;;;;;;;0.00;0.00;;;15.80;99.90;;;;;;5076169;28;20076;-79
2022/05/25 07:49:59;;;;;;;2.20;0.25;;;15.80;99.90;;;;;;5074638;28;20570;-79
2022/05/25 07:52:28;;;;;;;1.90;0.35;;;15.80;99.90;;;;;;5067424;28;20067;-82
2022/05/25 07:54:55;;;;;;;0.00;0.00;;;15.80;99.90;;;;;;5055252;28;20527;-79
2022/05/25 07:57:21;;;;;;;0.00;0.00;;;15.70;99.90;;;;;;5055000;28;20047;-80
2022/05/25 07:59:46;;;;;;;0.00;0.00;;;15.80;99.90;;;;;;5055954;28;20041;-79
2022/05/25 08:07:54;;;;;;;0.52;0.30;;;16.30;99.90;;;;;;5054740;28;20064;-79
2022/05/25 08:10:23;;;;;;;0.00;0.00;;;16.30;99.90;;;;;;5053816;28;20048;-80
2022/05/25 08:12:51;;;;;;;0.00;0.00;;;16.30;99.90;;;;;;5074356;28;20405;-80
2022/05/25 08:15:17;;;;;;;0.10;0.10;;;16.30;99.90;;;;;;5058000;28;20135;-79
2022/05/25 08:17:43;;;;;;;0.45;0.45;;;16.40;99.90;;;;;;5057694;28;20140;-80
2022/05/25 08:20:10;;;;;;;0.10;0.10;;;16.50;99.90;;;;;;5073811;28;20488;-80
2022/05/25 08:22:37;;;;;;;0.00;0.00;;;16.60;99.90;;;;;;5074000;28;20571;-80
2022/05/25 08:25:04;;;;;;;0.10;0.10;;;16.80;99.90;;;;;;5058091;28;20110;-79
2022/05/25 08:27:31;;;;;;;0.00;0.00;;;17.00;99.90;;;;;;5057450;28;20065;-79
2022/05/25 08:29:57;;;;;;;0.00;0.00;;;17.10;99.90;;;;;;5057623;28;20083;-79
2022/05/25 08:32:23;;;;;;;0.00;0.00;;;17.20;99.90;;;;;;5074719;28;20106;-78
2022/05/25 08:34:49;;;;;;;0.00;0.00;;;17.30;99.90;;;;;;5073653;28;20049;-78
2022/05/25 08:37:15;;;;;;;0.47;0.20;;;17.50;99.90;;;;;;5057595;28;20076;-79
2022/05/25 08:39:41;;;;;;;0.05;0.05;;;17.50;99.90;;;;;;5057191;28;20060;-79
2022/05/25 08:42:12;;;;;;;0.30;0.30;;;17.50;99.90;;;;;;5057802;28;20052;-78
2022/05/25 08:44:41;;;;;;;0.00;0.00;;;17.40;99.90;;;;;;5057673;28;20140;-79
2022/05/25 08:47:09;;;;;;;0.00;0.00;;;17.30;99.90;;;;;;5039609;28;20539;-79
2022/05/25 08:49:37;;;;;;;0.68;0.47;;;17.30;99.90;;;;;;5037810;28;20102;-80
2022/05/25 08:52:06;;;;;;;0.10;0.10;;;17.20;99.90;;;;;;5054890;28;20045;-81
2022/05/25 08:54:35;;;;;;;0.10;0.10;;;17.20;99.90;;;;;;5053959;28;20049;-80
2022/05/25 08:57:06;;;;;;;0.00;0.00;;;17.30;99.90;;;;;;5037642;28;20096;-79
2022/05/25 08:59:46;;;;;;;0.10;0.00;;;17.60;99.90;;;;;;5037758;28;20061;-79
2022/05/25 09:02:45;;;;;;;0.08;0.08;;;17.50;99.90;;;;;;5037845;28;20139;-79
2022/05/25 09:05:35;;;;;;;0.00;0.00;;;17.60;99.90;;;;;;5054286;28;20053;-79
2022/05/25 09:08:25;;;;;;;0.08;0.03;;;17.70;99.90;;;;;;5053921;28;20132;-79
2022/05/25 09:10:56;;;;;;;0.00;0.00;;;17.80;99.90;;;;;;5054379;28;20084;-79
2022/05/25 09:13:29;;;;;;;0.00;0.00;;;17.90;99.90;;;;;;5054205;28;20110;-79
2022/05/25 09:18:43;;;;;;;;;;;18.20;99.90;;;;;;5054339;28;20045;-79
2022/05/25 09:21:09;;;;;;;0.00;0.00;;;18.30;99.90;;;;;;5054460;28;20396;-79
2022/05/25 09:23:37;;;;;;;0.00;0.00;;;18.30;99.90;;;;;;5037378;28;20049;-79
2022/05/25 09:26:02;;;;;;;0.00;0.00;;;18.20;99.90;;;;;;5037378;28;20389;-79
2022/05/25 09:28:33;;;;;;;0.25;0.00;;;18.10;99.90;;;;;;5053707;28;20044;-79
2022/05/25 09:31:02;;;;;;;0.00;0.00;;;18.10;99.90;;;;;;5037103;28;20056;-80
2022/05/25 09:33:42;;;;;;;0.63;0.22;;;18.30;99.90;;;;;;5053918;28;20564;-79
2022/05/25 09:36:13;;;;;;;0.00;0.00;;;18.20;99.90;;;;;;5053721;28;20408;-79
2022/05/25 09:39:03;;;;;;;0.00;0.00;;;18.20;99.90;;;;;;5036979;28;20061;-79
2022/05/25 09:41:31;;;;;;;0.10;0.05;;;18.30;99.90;;;;;;5052957;28;20128;-79
2022/05/25 09:43:58;;;;;;;0.08;0.00;;;18.40;99.90;;;;;;5053553;28;20103;-78
2022/05/25 09:46:49;;;;;;;0.00;0.00;;;18.40;99.50;;;;;;5036920;28;20370;-79
2022/05/25 09:49:49;;;;;;;0.00;0.00;;;18.40;98.60;;;;;;5053468;28;20053;-79
2022/05/25 09:52:16;;;;;;;0.00;0.00;;;18.50;99.70;;;;;;5036872;28;20059;-79
2022/05/25 09:54:48;;;;;;;0.00;0.00;;;18.50;97.70;;;;;;5052994;28;20049;-80
2022/05/25 09:57:26;;;;;;;0.10;0.00;;;18.40;99.00;;;;;;5053162;28;20060;-79
2022/05/25 10:00:02;;;;;;;0.00;0.00;;;18.30;99.70;;;;;;5036719;28;20079;-79
2022/05/25 10:02:47;;;;;;;0.00;0.00;;;18.30;99.90;;;;;;5053799;28;20040;-79
2022/05/25 10:05:16;;;;;;;;;;;18.40;99.90;;;;;;5054206;28;20037;-79
2022/05/25 10:07:54;;;;;;;0.10;0.10;;;18.70;99.90;;;;;;5053072;28;19928;-79
2022/05/25 10:10:28;;;;;;;0.00;0.00;;;18.90;99.90;;;;;;5036726;28;20052;-79
2022/05/25 10:13:12;;;;;;;0.00;0.00;;;18.90;99.20;;;;;;5037034;28;20103;-79
2022/05/25 10:15:38;;;;;;;0.08;0.00;;;19.00;99.90;;;;;;5052989;28;20140;-80
2022/05/25 10:18:04;;;;;;;0.00;0.00;;;19.10;99.10;;;;;;5052959;28;20132;-80
2022/05/25 10:20:43;;;;;;;0.00;0.00;;;19.10;98.20;;;;;;5053095;28;20131;-80
2022/05/25 10:23:27;;;;;;;0.00;0.00;;;19.30;96.80;;;;;;5052914;28;20051;-79
2022/05/25 10:26:09;;;;;;;0.00;0.00;;;19.40;99.10;;;;;;5036806;28;20091;-80
2022/05/25 10:28:57;;;;;;;0.00;0.00;;;19.40;98.00;;;;;;5036297;28;20049;-80
2022/05/25 10:37:07;;;;;;;0.00;0.00;;;18.90;97.20;;;;;;5052849;28;20120;-79
2022/05/25 10:39:36;;;;;;;0.00;0.00;;;18.60;97.00;;;;;;5052698;28;20041;-79
2022/05/25 10:42:44;;;;;;;0.03;0.00;;;18.30;98.70;;;;;;5052391;28;20718;-80
2022/05/25 10:45:18;;;;;;;0.00;0.00;;;18.00;99.40;;;;;;5052772;28;20041;-80
2022/05/25 10:47:54;;;;;;;0.13;0.00;;;17.70;99.60;;;;;;5035671;28;20562;-80
2022/05/25 10:50:45;;;;;;;0.00;0.00;;;17.50;99.90;;;;;;5053544;28;20061;-80
2022/05/25 10:53:39;;;;;;;0.52;0.35;;;17.30;99.90;;;;;;5055443;28;20099;-80
2022/05/25 10:56:24;;;;;;;0.00;0.00;;;17.10;99.90;;;;;;5039692;28;20441;-80
2022/05/25 10:59:28;;;;;;;0.17;0.17;;;17.00;99.90;;;;;;5057485;28;20088;-79
2022/05/25 11:02:33;;;;;;;0.00;0.00;;;17.40;99.90;;;;;;5039970;28;20492;-80
2022/05/25 11:05:11;;;;;;;0.00;0.00;;;18.10;99.90;;;;;;5057578;28;20072;-80
2022/05/25 11:07:42;;;;;;;1.00;0.10;;;18.40;99.90;;;;;;5057130;28;20048;-80
2022/05/25 11:10:35;;;;;;;0.10;0.10;;;18.40;99.10;;;;;;5075530;28;20032;-78
2022/05/25 11:13:30;;;;;;;0.00;0.00;;;18.30;99.80;;;;;;5057700;28;20064;-79
2022/05/25 11:16:26;;;;;;;0.03;0.00;;;18.50;99.90;;;;;;5018324;28;20513;-78
2022/05/25 11:19:16;;;;;;;0.00;0.00;;;19.00;99.90;;;;;;5018905;28;20481;-78
2022/05/25 11:21:50;;;;;;;0.00;0.00;;;19.60;99.70;;;;;;5019179;28;20378;-78
2022/05/25 11:24:19;;;;;;;0.10;0.00;;;19.80;97.70;;;;;;5018586;28;20489;-79
2022/05/25 11:27:08;;;;;;;0.00;0.00;;;19.80;95.80;;;;;;5018693;28;20591;-79
2022/05/25 11:29:43;;;;;;;0.00;0.00;;;19.80;97.00;;;;;;5018805;28;20532;-79
2022/05/25 11:32:21;;;;;;;0.03;0.03;;;19.80;96.60;;;;;;5017930;28;20400;-79
2022/05/25 11:35:04;;;;;;;2.97;0.60;;;19.80;97.00;;;;;;5018773;28;20046;-79
2022/05/25 11:37:55;;;;;;;0.00;0.00;;;19.80;95.90;;;;;;5018735;28;20151;-78
2022/05/25 11:40:39;;;;;;;0.00;0.00;;;19.80;94.00;;;;;;5019258;28;20057;-79
2022/05/25 11:43:27;;;;;;;0.47;0.30;;;19.60;94.70;;;;;;5019358;28;20131;-79
2022/05/25 11:45:58;;;;;;;0.45;0.35;;;19.70;95.20;;;;;;5018660;28;20108;-78
2022/05/25 11:48:51;;;;;;;0.00;0.00;;;19.80;92.30;;;;;;5018537;28;20087;-79
2022/05/25 11:51:37;;;;;;;0.00;0.00;;;19.70;89.80;;;;;;5018903;28;20128;-78
2022/05/25 11:54:34;;;;;;;0.00;0.00;;;19.60;91.60;;;;;;5074458;28;20110;-78
2022/05/25 11:57:04;;;;;;;0.17;0.10;;;19.60;91.80;;;;;;5074419;28;20091;-78
2022/05/25 11:59:52;;;;;;;0.10;0.10;;;19.70;91.20;;;;;;5074783;28;20105;-79
2022/05/25 12:02:36;;;;;;;0.10;0.10;;;19.80;91.60;;;;;;5057794;28;20110;-78
2022/05/25 12:05:23;;;;;;;0.00;0.00;;;19.90;88.70;;;;;;5074221;28;20133;-79
2022/05/25 12:08:14;;;;;;;0.00;0.00;;;20.20;91.20;;;;;;5057620;28;20063;-79
2022/05/25 12:10:42;;;;;;;0.77;0.30;;;20.10;91.10;;;;;;5074648;28;20123;-79
2022/05/25 12:13:12;;;;;;;0.00;0.00;;;19.90;87.70;;;;;;5074381;28;20503;-78
2022/05/25 12:16:03;;;;;;;0.00;0.00;;;19.60;85.00;;;;;;5074093;28;20050;-79
2022/05/25 12:18:54;;;;;;;0.20;0.13;;;19.30;88.90;;;;;;5074902;28;20091;-79
2022/05/25 12:21:23;;;;;;;0.10;0.10;;;19.00;90.10;;;;;;5074581;28;20048;-78
2022/05/25 12:23:56;;;;;;;0.00;0.00;;;18.80;93.20;;;;;;5074052;28;20480;-79
2022/05/25 12:26:26;;;;;;;8.30;0.35;;;18.60;91.50;;;;;;5074001;28;20135;-79
2022/05/25 12:28:59;;;;;;;0.00;0.00;;;18.30;92.20;;;;;;5057591;28;20135;-79
2022/05/25 12:31:29;;;;;;;0.20;0.15;;;18.10;92.10;;;;;;5074348;28;20045;-78
2022/05/25 12:33:56;;;;;;;0.08;0.00;;;18.00;93.40;;;;;;5057297;28;20102;-78
2022/05/25 12:36:22;;;;;;;0.00;0.00;;;17.90;95.60;;;;;;5073868;28;20051;-78
2022/05/25 12:38:48;;;;;;;0.00;0.00;;;17.70;95.90;;;;;;5073847;28;20044;-78
2022/05/25 12:41:35;;;;;;;0.00;0.00;;;17.60;97.00;;;;;;5074403;28;20189;-78
2022/05/25 12:48:30;;;;;;;0.03;0.00;;;17.60;97.30;;;;;;5057287;28;20116;-78
2022/05/25 12:49:45;;;;;;;0.00;0.00;;;17.70;97.90;;;;;;5073525;28;20083;-78
2022/05/25 12:52:26;;;;;;;0.00;0.00;;;18.10;99.20;;;;;;5073531;28;20044;-79
2022/05/25 12:54:53;;;;;;;2.53;0.75;;;18.30;99.40;;;;;;5033131;28;1130045;-78
2022/05/25 12:57:41;;;;;;;2.50;0.45;;;18.50;99.00;;;;;;5057935;28;20049;-79
2022/05/25 13:00:25;;;;;;;0.20;0.05;;;18.70;99.60;;;;;;5074177;28;20048;-79
2022/05/25 13:02:50;;;;;;;0.28;0.28;;;18.80;98.00;;;;;;5073817;28;20060;-79
2022/05/25 13:05:47;;;;;;;0.00;0.00;;;18.90;98.30;;;;;;5074236;28;20377;-78
2022/05/25 13:08:47;;;;;;;0.00;0.00;;;18.90;98.20;;;;;;5075191;28;20048;-79
2022/05/25 13:11:34;;;;;;;0.00;0.00;;;19.10;98.30;;;;;;5074118;28;20495;-78
2022/05/25 13:14:01;;;;;;;0.30;0.10;;;19.30;98.50;;;;;;5057121;28;20480;-78
2022/05/25 13:16:48;;;;;;;0.20;0.03;;;19.20;96.40;;;;;;5072772;28;20461;-78
2022/05/25 13:19:18;;;;;;;0.00;0.00;;;19.10;95.50;;;;;;5057243;28;20048;-79
2022/05/25 13:22:20;;;;;;;0.00;0.00;;;19.20;96.30;;;;;;5074113;28;20045;-79
2022/05/25 13:25:14;;;;;;;0.00;0.00;;;19.50;95.90;;;;;;5057202;28;20048;-78
2022/05/25 13:28:37;;;;;;;0.00;0.00;;;19.50;95.20;;;;;;5057093;28;20484;-79
2022/05/25 13:31:44;;;;;;;0.00;0.00;;;19.50;93.40;;;;;;5000396;28;20053;-79
2022/05/25 13:34:13;;;;;;;0.00;0.00;;;19.30;92.00;;;;;;5016523;28;20473;-79
2022/05/25 13:36:51;;;;;;;0.00;0.00;;;19.20;92.60;;;;;;5016761;28;20401;-79
2022/05/25 13:39:20;;;;;;;0.00;0.00;;;18.90;92.70;;;;;;5016889;28;20051;-79
2022/05/25 13:41:55;;;;;;;0.00;0.00;;;18.60;94.00;;;;;;5016569;28;20140;-79
2022/05/25 13:44:45;;;;;;;0.30;0.30;;;18.40;94.10;;;;;;5016869;28;20053;-79
2022/05/25 13:47:22;;;;;;;0.00;0.00;;;18.10;94.40;;;;;;5016377;28;20104;-79